sensor_id;sensor_type;location;lat;lon;timestamp;temperature;humidity
11242;DHT22;5678;52.370;9.006;2022-09-09T00:01:23;13.10;99.90
11242;DHT22;5678;52.370;9.006;2022-09-09T00:04:00;13.20;99.90
11242;DHT22;5678;52.370;9.006;2022-09-09T00:06:32;13.00;99.90
11242;DHT22;5678;52.370;9.006;2022-09-09T00:09:06;13.00;99.90
11242;DHT22;5678;52.370;9.006;2022-09-09T00:11:40;13.00;99.90
11242;DHT22;5678;52.370;9.006;2022-09-09T00:14:15;13.00;99.90
11242;DHT22;5678;52.370;9.006;2022-09-09T00:16:51;13.00;99.90
11242;DHT22;5678;52.370;9.006;2022-09-09T00:19:23;13.00;99.90
11242;DHT22;5678;52.370;9.006;2022-09-09T00:21:59;13.00;99.90
11242;DHT22;5678;52.370;9.006;2022-09-09T00:24:31;13.70;99.90
11242;DHT22;5678;52.370;9.006;2022-09-09T00:27:06;12.90;99.90
11242;DHT22;5678;52.370;9.006;2022-09-09T00:29:41;12.90;99.90
11242;DHT22;5678;52.370;9.006;2022-09-09T00:32:15;12.80;99.90
11242;DHT22;5678;52.370;9.006;2022-09-09T00:34:48;12.90;99.90
11242;DHT22;5678;52.370;9.006;2022-09-09T00:37:19;12.70;99.90
11242;DHT22;5678;52.370;9.006;2022-09-09T00:39:48;13.40;99.90
11242;DHT22;5678;52.370;9.006;2022-09-09T00:42:22;12.90;99.90
11242;DHT22;5678;52.370;9.006;2022-09-09T00:44:54;12.70;99.90
11242;DHT22;5678;52.370;9.006;2022-09-09T00:47:45;12.80;99.90
11242;DHT22;5678;52.370;9.006;2022-09-09T00:50:37;12.60;99.90
11242;DHT22;5678;52.370;9.006;2022-09-09T00:53:18;12.90;99.90
11242;DHT22;5678;52.370;9.006;2022-09-09T00:55:56;12.70;99.90
11242;DHT22;5678;52.370;9.006;2022-09-09T00:58:27;12.70;99.90
11242;DHT22;5678;52.370;9.006;2022-09-09T01:00:59;12.70;99.90
11242;DHT22;5678;52.370;9.006;2022-09-09T01:03:34;12.60;99.90
11242;DHT22;5678;52.370;9.006;2022-09-09T01:06:12;12.60;99.90
11242;DHT22;5678;52.370;9.006;2022-09-09T01:09:04;12.60;99.90
11242;DHT22;5678;52.370;9.006;2022-09-09T01:11:43;12.60;99.90
11242;DHT22;5678;52.370;9.006;2022-09-09T01:16:58;12.60;99.90
11242;DHT22;5678;52.370;9.006;2022-09-09T01:19:41;12.60;99.90
11242;DHT22;5678;52.370;9.006;2022-09-09T01:22:21;12.60;99.90
11242;DHT22;5678;52.370;9.006;2022-09-09T01:27:56;12.50;99.90
11242;DHT22;5678;52.370;9.006;2022-09-09T01:30:27;12.50;99.90
11242;DHT22;5678;52.370;9.006;2022-09-09T01:32:57;12.40;99.90
11242;DHT22;5678;52.370;9.006;2022-09-09T01:35:32;12.40;99.90
11242;DHT22;5678;52.370;9.006;2022-09-09T01:38:02;12.50;99.90
11242;DHT22;5678;52.370;9.006;2022-09-09T01:40:30;12.40;99.90
11242;DHT22;5678;52.370;9.006;2022-09-09T01:43:00;12.40;99.90
11242;DHT22;5678;52.370;9.006;2022-09-09T01:45:29;12.30;99.90
11242;DHT22;5678;52.370;9.006;2022-09-09T01:47:57;12.30;99.90
11242;DHT22;5678;52.370;9.006;2022-09-09T01:50:26;12.30;99.90
11242;DHT22;5678;52.370;9.006;2022-09-09T01:52:57;12.20;99.90
11242;DHT22;5678;52.370;9.006;2022-09-09T01:55:30;14.10;99.90
11242;DHT22;5678;52.370;9.006;2022-09-09T01:58:19;13.10;99.90
11242;DHT22;5678;52.370;9.006;2022-09-09T02:00:56;12.20;99.90
11242;DHT22;5678;52.370;9.006;2022-09-09T02:03:28;12.10;99.90
11242;DHT22;5678;52.370;9.006;2022-09-09T02:06:18;12.30;99.90
11242;DHT22;5678;52.370;9.006;2022-09-09T02:08:50;12.10;99.90
11242;DHT22;5678;52.370;9.006;2022-09-09T02:11:21;12.10;99.90
11242;DHT22;5678;52.370;9.006;2022-09-09T02:13:52;12.10;99.90
11242;DHT22;5678;52.370;9.006;2022-09-09T02:16:25;12.10;99.90
11242;DHT22;5678;52.370;9.006;2022-09-09T02:18:57;12.10;99.90
11242;DHT22;5678;52.370;9.006;2022-09-09T02:21:28;12.10;99.90
11242;DHT22;5678;52.370;9.006;2022-09-09T02:23:59;12.20;99.90
11242;DHT22;5678;52.370;9.006;2022-09-09T02:26:32;12.20;99.90
11242;DHT22;5678;52.370;9.006;2022-09-09T02:29:05;12.20;99.90
11242;DHT22;5678;52.370;9.006;2022-09-09T02:31:36;12.30;99.90
11242;DHT22;5678;52.370;9.006;2022-09-09T02:34:05;12.40;99.90
11242;DHT22;5678;52.370;9.006;2022-09-09T02:36:40;12.50;99.90
11242;DHT22;5678;52.370;9.006;2022-09-09T02:39:10;12.60;99.90
11242;DHT22;5678;52.370;9.006;2022-09-09T02:41:40;12.70;99.90
11242;DHT22;5678;52.370;9.006;2022-09-09T02:44:12;12.80;99.90
11242;DHT22;5678;52.370;9.006;2022-09-09T02:46:58;12.90;99.90
11242;DHT22;5678;52.370;9.006;2022-09-09T02:49:43;13.00;99.90
11242;DHT22;5678;52.370;9.006;2022-09-09T02:52:14;13.10;99.90
11242;DHT22;5678;52.370;9.006;2022-09-09T02:54:43;13.30;99.90
11242;DHT22;5678;52.370;9.006;2022-09-09T02:57:15;13.60;99.90
11242;DHT22;5678;52.370;9.006;2022-09-09T02:59:47;13.30;99.90
11242;DHT22;5678;52.370;9.006;2022-09-09T03:02:15;13.40;99.90
11242;DHT22;5678;52.370;9.006;2022-09-09T03:04:45;14.00;99.90
11242;DHT22;5678;52.370;9.006;2022-09-09T03:07:17;15.40;99.90
11242;DHT22;5678;52.370;9.006;2022-09-09T03:09:45;13.50;99.90
11242;DHT22;5678;52.370;9.006;2022-09-09T03:12:13;13.50;99.90
11242;DHT22;5678;52.370;9.006;2022-09-09T03:14:41;13.60;99.90
11242;DHT22;5678;52.370;9.006;2022-09-09T03:17:12;13.70;99.90
11242;DHT22;5678;52.370;9.006;2022-09-09T03:19:40;13.60;99.90
11242;DHT22;5678;52.370;9.006;2022-09-09T03:22:09;13.70;99.90
11242;DHT22;5678;52.370;9.006;2022-09-09T03:24:37;14.10;99.90
11242;DHT22;5678;52.370;9.006;2022-09-09T03:27:05;15.00;99.90
11242;DHT22;5678;52.370;9.006;2022-09-09T03:29:33;13.70;99.90
11242;DHT22;5678;52.370;9.006;2022-09-09T03:32:02;13.70;99.90
11242;DHT22;5678;52.370;9.006;2022-09-09T03:34:31;13.70;99.90
11242;DHT22;5678;52.370;9.006;2022-09-09T03:36:59;13.70;99.90
11242;DHT22;5678;52.370;9.006;2022-09-09T03:39:27;13.70;99.90
11242;DHT22;5678;52.370;9.006;2022-09-09T03:41:55;15.30;99.90
11242;DHT22;5678;52.370;9.006;2022-09-09T03:44:23;13.70;99.90
11242;DHT22;5678;52.370;9.006;2022-09-09T03:46:51;14.40;99.90
11242;DHT22;5678;52.370;9.006;2022-09-09T03:49:19;14.40;99.90
11242;DHT22;5678;52.370;9.006;2022-09-09T03:51:49;15.50;99.90
11242;DHT22;5678;52.370;9.006;2022-09-09T03:54:17;13.80;99.90
11242;DHT22;5678;52.370;9.006;2022-09-09T03:56:46;13.70;99.90
11242;DHT22;5678;52.370;9.006;2022-09-09T03:59:14;13.70;99.90
11242;DHT22;5678;52.370;9.006;2022-09-09T04:01:42;14.80;99.90
11242;DHT22;5678;52.370;9.006;2022-09-09T04:04:11;14.80;99.90
11242;DHT22;5678;52.370;9.006;2022-09-09T04:06:39;14.40;99.90
11242;DHT22;5678;52.370;9.006;2022-09-09T04:09:09;14.90;99.90
11242;DHT22;5678;52.370;9.006;2022-09-09T04:11:36;14.70;99.90
11242;DHT22;5678;52.370;9.006;2022-09-09T04:14:04;13.80;99.90
11242;DHT22;5678;52.370;9.006;2022-09-09T04:16:33;13.90;99.90
11242;DHT22;5678;52.370;9.006;2022-09-09T04:19:04;13.80;99.90
11242;DHT22;5678;52.370;9.006;2022-09-09T04:21:33;14.40;99.90
11242;DHT22;5678;52.370;9.006;2022-09-09T04:24:01;14.40;99.90
11242;DHT22;5678;52.370;9.006;2022-09-09T04:26:30;13.80;99.90
11242;DHT22;5678;52.370;9.006;2022-09-09T04:28:58;15.40;99.90
11242;DHT22;5678;52.370;9.006;2022-09-09T04:31:26;14.10;99.90
11242;DHT22;5678;52.370;9.006;2022-09-09T04:33:54;13.80;99.90
11242;DHT22;5678;52.370;9.006;2022-09-09T04:36:22;13.80;99.90
11242;DHT22;5678;52.370;9.006;2022-09-09T04:38:50;14.60;99.90
11242;DHT22;5678;52.370;9.006;2022-09-09T04:41:19;14.50;99.90
11242;DHT22;5678;52.370;9.006;2022-09-09T04:43:49;13.80;99.90
11242;DHT22;5678;52.370;9.006;2022-09-09T04:46:17;14.70;99.90
11242;DHT22;5678;52.370;9.006;2022-09-09T04:48:44;15.40;99.90
11242;DHT22;5678;52.370;9.006;2022-09-09T04:51:13;14.80;99.90
11242;DHT22;5678;52.370;9.006;2022-09-09T04:53:42;14.30;99.90
11242;DHT22;5678;52.370;9.006;2022-09-09T04:56:11;13.90;99.90
11242;DHT22;5678;52.370;9.006;2022-09-09T04:58:40;13.70;99.90
11242;DHT22;5678;52.370;9.006;2022-09-09T05:01:12;14.30;99.90
11242;DHT22;5678;52.370;9.006;2022-09-09T05:03:40;15.10;99.90
11242;DHT22;5678;52.370;9.006;2022-09-09T05:06:10;15.40;99.90
11242;DHT22;5678;52.370;9.006;2022-09-09T05:08:40;13.80;99.90
11242;DHT22;5678;52.370;9.006;2022-09-09T05:11:16;13.70;99.90
11242;DHT22;5678;52.370;9.006;2022-09-09T05:13:44;14.60;99.90
11242;DHT22;5678;52.370;9.006;2022-09-09T05:16:14;15.00;99.90
11242;DHT22;5678;52.370;9.006;2022-09-09T05:18:42;14.10;99.90
11242;DHT22;5678;52.370;9.006;2022-09-09T05:21:11;14.40;99.90
11242;DHT22;5678;52.370;9.006;2022-09-09T05:23:40;14.10;99.90
11242;DHT22;5678;52.370;9.006;2022-09-09T05:26:12;15.50;99.90
11242;DHT22;5678;52.370;9.006;2022-09-09T05:28:44;15.00;99.90
11242;DHT22;5678;52.370;9.006;2022-09-09T05:31:14;14.60;99.90
11242;DHT22;5678;52.370;9.006;2022-09-09T05:33:44;14.50;99.90
11242;DHT22;5678;52.370;9.006;2022-09-09T05:36:14;14.10;99.90
11242;DHT22;5678;52.370;9.006;2022-09-09T05:38:43;14.60;99.90
11242;DHT22;5678;52.370;9.006;2022-09-09T05:41:12;15.20;99.90
11242;DHT22;5678;52.370;9.006;2022-09-09T05:43:42;16.00;99.90
11242;DHT22;5678;52.370;9.006;2022-09-09T05:46:14;14.20;99.90
11242;DHT22;5678;52.370;9.006;2022-09-09T05:48:43;15.60;99.90
11242;DHT22;5678;52.370;9.006;2022-09-09T05:51:14;15.30;99.90
11242;DHT22;5678;52.370;9.006;2022-09-09T05:53:44;15.60;99.90
11242;DHT22;5678;52.370;9.006;2022-09-09T05:56:14;15.10;99.90
11242;DHT22;5678;52.370;9.006;2022-09-09T05:58:43;15.20;99.90
11242;DHT22;5678;52.370;9.006;2022-09-09T06:01:17;14.60;99.90
11242;DHT22;5678;52.370;9.006;2022-09-09T06:03:46;15.60;99.90
11242;DHT22;5678;52.370;9.006;2022-09-09T06:06:16;15.70;99.90
11242;DHT22;5678;52.370;9.006;2022-09-09T06:08:45;15.10;99.90
11242;DHT22;5678;52.370;9.006;2022-09-09T06:11:14;14.60;99.90
11242;DHT22;5678;52.370;9.006;2022-09-09T06:13:43;14.60;99.90
11242;DHT22;5678;52.370;9.006;2022-09-09T06:16:12;16.00;99.90
11242;DHT22;5678;52.370;9.006;2022-09-09T06:18:42;15.60;99.90
11242;DHT22;5678;52.370;9.006;2022-09-09T06:21:15;14.90;99.90
11242;DHT22;5678;52.370;9.006;2022-09-09T06:23:43;15.20;99.90
11242;DHT22;5678;52.370;9.006;2022-09-09T06:26:13;15.20;99.90
11242;DHT22;5678;52.370;9.006;2022-09-09T06:28:41;15.40;99.90
11242;DHT22;5678;52.370;9.006;2022-09-09T06:31:11;15.40;99.90
11242;DHT22;5678;52.370;9.006;2022-09-09T06:33:42;15.60;99.90
11242;DHT22;5678;52.370;9.006;2022-09-09T06:36:12;15.00;99.90
11242;DHT22;5678;52.370;9.006;2022-09-09T06:38:41;16.30;99.90
11242;DHT22;5678;52.370;9.006;2022-09-09T06:41:10;15.20;99.90
11242;DHT22;5678;52.370;9.006;2022-09-09T06:43:39;15.70;99.90
11242;DHT22;5678;52.370;9.006;2022-09-09T06:46:09;15.90;99.90
11242;DHT22;5678;52.370;9.006;2022-09-09T06:48:38;15.90;99.90
11242;DHT22;5678;52.370;9.006;2022-09-09T06:51:10;15.70;99.90
11242;DHT22;5678;52.370;9.006;2022-09-09T06:53:40;15.30;99.90
11242;DHT22;5678;52.370;9.006;2022-09-09T06:56:19;16.50;99.90
11242;DHT22;5678;52.370;9.006;2022-09-09T06:58:49;15.50;99.90
11242;DHT22;5678;52.370;9.006;2022-09-09T07:01:18;15.80;99.90
11242;DHT22;5678;52.370;9.006;2022-09-09T07:03:48;15.60;99.90
11242;DHT22;5678;52.370;9.006;2022-09-09T07:06:19;16.10;99.90
11242;DHT22;5678;52.370;9.006;2022-09-09T07:08:51;16.80;99.90
11242;DHT22;5678;52.370;9.006;2022-09-09T07:11:24;16.50;99.90
11242;DHT22;5678;52.370;9.006;2022-09-09T07:13:52;16.10;99.90
11242;DHT22;5678;52.370;9.006;2022-09-09T07:16:21;17.20;99.90
11242;DHT22;5678;52.370;9.006;2022-09-09T07:18:52;17.00;99.90
11242;DHT22;5678;52.370;9.006;2022-09-09T07:21:26;17.50;99.90
11242;DHT22;5678;52.370;9.006;2022-09-09T07:23:55;18.00;99.90
11242;DHT22;5678;52.370;9.006;2022-09-09T07:26:25;18.40;99.90
11242;DHT22;5678;52.370;9.006;2022-09-09T07:28:53;18.70;99.90
11242;DHT22;5678;52.370;9.006;2022-09-09T07:31:24;18.90;99.90
11242;DHT22;5678;52.370;9.006;2022-09-09T07:33:53;18.90;99.90
11242;DHT22;5678;52.370;9.006;2022-09-09T07:36:23;19.00;99.90
11242;DHT22;5678;52.370;9.006;2022-09-09T07:39:01;18.90;99.90
11242;DHT22;5678;52.370;9.006;2022-09-09T07:41:31;19.00;99.90
11242;DHT22;5678;52.370;9.006;2022-09-09T07:44:05;18.90;99.90
11242;DHT22;5678;52.370;9.006;2022-09-09T07:46:33;19.10;99.90
11242;DHT22;5678;52.370;9.006;2022-09-09T07:49:02;19.10;99.90
11242;DHT22;5678;52.370;9.006;2022-09-09T07:51:32;19.10;99.90
11242;DHT22;5678;52.370;9.006;2022-09-09T07:54:04;19.20;99.90
11242;DHT22;5678;52.370;9.006;2022-09-09T07:56:32;19.20;99.90
11242;DHT22;5678;52.370;9.006;2022-09-09T07:59:01;19.20;99.90
11242;DHT22;5678;52.370;9.006;2022-09-09T08:01:32;19.30;99.90
11242;DHT22;5678;52.370;9.006;2022-09-09T08:04:02;19.30;99.90
11242;DHT22;5678;52.370;9.006;2022-09-09T08:06:32;19.30;99.90
11242;DHT22;5678;52.370;9.006;2022-09-09T08:09:02;19.40;99.90
11242;DHT22;5678;52.370;9.006;2022-09-09T08:11:31;19.50;99.90
11242;DHT22;5678;52.370;9.006;2022-09-09T08:14:04;19.70;99.90
11242;DHT22;5678;52.370;9.006;2022-09-09T08:16:35;19.80;99.90
11242;DHT22;5678;52.370;9.006;2022-09-09T08:19:04;19.80;99.90
11242;DHT22;5678;52.370;9.006;2022-09-09T08:21:35;20.00;99.90
11242;DHT22;5678;52.370;9.006;2022-09-09T08:24:07;20.00;99.90
11242;DHT22;5678;52.370;9.006;2022-09-09T08:26:37;20.30;99.90
11242;DHT22;5678;52.370;9.006;2022-09-09T08:29:06;20.40;99.90
11242;DHT22;5678;52.370;9.006;2022-09-09T08:31:36;20.70;99.90
11242;DHT22;5678;52.370;9.006;2022-09-09T08:34:06;21.10;99.90
11242;DHT22;5678;52.370;9.006;2022-09-09T08:36:36;21.60;99.90
11242;DHT22;5678;52.370;9.006;2022-09-09T08:39:06;21.70;99.90
11242;DHT22;5678;52.370;9.006;2022-09-09T08:41:43;21.70;99.90
11242;DHT22;5678;52.370;9.006;2022-09-09T08:44:17;21.60;99.90
11242;DHT22;5678;52.370;9.006;2022-09-09T08:46:57;21.50;99.90
11242;DHT22;5678;52.370;9.006;2022-09-09T08:49:56;21.40;99.90
11242;DHT22;5678;52.370;9.006;2022-09-09T08:52:27;21.30;99.90
11242;DHT22;5678;52.370;9.006;2022-09-09T08:55:02;21.30;99.90
11242;DHT22;5678;52.370;9.006;2022-09-09T08:57:31;21.30;99.90
11242;DHT22;5678;52.370;9.006;2022-09-09T08:59:59;21.20;99.90
11242;DHT22;5678;52.370;9.006;2022-09-09T09:02:33;21.20;99.90
11242;DHT22;5678;52.370;9.006;2022-09-09T09:05:15;21.50;99.90
11242;DHT22;5678;52.370;9.006;2022-09-09T09:07:55;21.70;99.90
11242;DHT22;5678;52.370;9.006;2022-09-09T09:10:38;22.00;99.90
11242;DHT22;5678;52.370;9.006;2022-09-09T09:13:17;22.20;99.90
11242;DHT22;5678;52.370;9.006;2022-09-09T09:15:52;22.30;99.90
11242;DHT22;5678;52.370;9.006;2022-09-09T09:18:21;22.40;99.90
11242;DHT22;5678;52.370;9.006;2022-09-09T09:20:56;22.40;99.90
11242;DHT22;5678;52.370;9.006;2022-09-09T09:23:31;22.30;99.90
11242;DHT22;5678;52.370;9.006;2022-09-09T09:26:07;22.30;99.90
11242;DHT22;5678;52.370;9.006;2022-09-09T09:28:37;22.30;99.90
11242;DHT22;5678;52.370;9.006;2022-09-09T09:31:07;22.30;99.90
11242;DHT22;5678;52.370;9.006;2022-09-09T09:33:45;22.50;99.90
11242;DHT22;5678;52.370;9.006;2022-09-09T09:36:14;22.80;99.90
11242;DHT22;5678;52.370;9.006;2022-09-09T09:38:55;23.00;99.90
11242;DHT22;5678;52.370;9.006;2022-09-09T09:41:46;23.20;99.90
11242;DHT22;5678;52.370;9.006;2022-09-09T09:44:25;23.70;99.90
11242;DHT22;5678;52.370;9.006;2022-09-09T09:47:06;23.80;99.90
11242;DHT22;5678;52.370;9.006;2022-09-09T09:49:34;23.90;99.90
11242;DHT22;5678;52.370;9.006;2022-09-09T09:52:03;24.00;99.90
11242;DHT22;5678;52.370;9.006;2022-09-09T09:54:33;24.10;99.90
11242;DHT22;5678;52.370;9.006;2022-09-09T09:57:11;24.20;99.90
11242;DHT22;5678;52.370;9.006;2022-09-09T09:59:40;24.10;99.90
11242;DHT22;5678;52.370;9.006;2022-09-09T10:02:19;23.90;99.90
11242;DHT22;5678;52.370;9.006;2022-09-09T10:05:00;23.80;99.90
11242;DHT22;5678;52.370;9.006;2022-09-09T10:07:29;23.50;99.90
11242;DHT22;5678;52.370;9.006;2022-09-09T10:09:57;23.30;99.90
11242;DHT22;5678;52.370;9.006;2022-09-09T10:12:37;23.20;99.90
11242;DHT22;5678;52.370;9.006;2022-09-09T10:15:21;23.00;99.90
11242;DHT22;5678;52.370;9.006;2022-09-09T10:17:59;22.80;99.90
11242;DHT22;5678;52.370;9.006;2022-09-09T10:20:36;22.50;99.90
11242;DHT22;5678;52.370;9.006;2022-09-09T10:23:17;22.20;99.90
11242;DHT22;5678;52.370;9.006;2022-09-09T10:26:01;21.90;99.90
11242;DHT22;5678;52.370;9.006;2022-09-09T10:28:42;21.60;99.90
11242;DHT22;5678;52.370;9.006;2022-09-09T10:31:19;21.40;99.90
11242;DHT22;5678;52.370;9.006;2022-09-09T10:33:51;21.10;99.90
11242;DHT22;5678;52.370;9.006;2022-09-09T10:36:26;20.90;99.90
11242;DHT22;5678;52.370;9.006;2022-09-09T10:38:59;20.90;99.90
11242;DHT22;5678;52.370;9.006;2022-09-09T10:41:41;21.10;99.90
11242;DHT22;5678;52.370;9.006;2022-09-09T10:44:26;21.20;99.90
11242;DHT22;5678;52.370;9.006;2022-09-09T10:47:32;21.40;99.90
11242;DHT22;5678;52.370;9.006;2022-09-09T10:50:15;21.50;99.90
11242;DHT22;5678;52.370;9.006;2022-09-09T10:52:50;21.40;99.90
11242;DHT22;5678;52.370;9.006;2022-09-09T10:55:27;21.20;99.90
11242;DHT22;5678;52.370;9.006;2022-09-09T10:57:58;21.10;99.90
11242;DHT22;5678;52.370;9.006;2022-09-09T11:00:37;21.20;99.90
11242;DHT22;5678;52.370;9.006;2022-09-09T11:03:09;21.40;99.90
11242;DHT22;5678;52.370;9.006;2022-09-09T11:05:48;21.80;99.90
11242;DHT22;5678;52.370;9.006;2022-09-09T11:08:19;22.00;99.90
11242;DHT22;5678;52.370;9.006;2022-09-09T11:10:55;22.20;99.90
11242;DHT22;5678;52.370;9.006;2022-09-09T11:13:32;22.20;99.90
11242;DHT22;5678;52.370;9.006;2022-09-09T11:16:13;22.30;99.90
11242;DHT22;5678;52.370;9.006;2022-09-09T11:18:42;22.30;99.90
11242;DHT22;5678;52.370;9.006;2022-09-09T11:21:16;22.30;99.90
11242;DHT22;5678;52.370;9.006;2022-09-09T11:23:49;22.30;99.90
11242;DHT22;5678;52.370;9.006;2022-09-09T11:26:29;22.40;99.90
11242;DHT22;5678;52.370;9.006;2022-09-09T11:29:17;22.40;99.90
11242;DHT22;5678;52.370;9.006;2022-09-09T11:32:03;22.30;99.90
11242;DHT22;5678;52.370;9.006;2022-09-09T11:34:44;22.10;99.90
11242;DHT22;5678;52.370;9.006;2022-09-09T11:40:20;22.30;99.90
11242;DHT22;5678;52.370;9.006;2022-09-09T11:43:01;22.60;99.90
11242;DHT22;5678;52.370;9.006;2022-09-09T11:45:33;23.00;99.90
11242;DHT22;5678;52.370;9.006;2022-09-09T11:48:04;23.50;99.90
11242;DHT22;5678;52.370;9.006;2022-09-09T11:50:35;23.90;99.90
11242;DHT22;5678;52.370;9.006;2022-09-09T11:53:16;24.30;99.90
11242;DHT22;5678;52.370;9.006;2022-09-09T11:55:46;24.70;99.90
11242;DHT22;5678;52.370;9.006;2022-09-09T11:58:16;25.10;99.90
11242;DHT22;5678;52.370;9.006;2022-09-09T12:00:47;25.20;99.90
11242;DHT22;5678;52.370;9.006;2022-09-09T12:03:40;25.30;99.90
11242;DHT22;5678;52.370;9.006;2022-09-09T12:06:13;25.30;99.90
11242;DHT22;5678;52.370;9.006;2022-09-09T12:08:44;25.40;99.90
11242;DHT22;5678;52.370;9.006;2022-09-09T12:11:24;25.30;99.90
11242;DHT22;5678;52.370;9.006;2022-09-09T12:13:54;24.90;99.90
11242;DHT22;5678;52.370;9.006;2022-09-09T12:16:31;24.70;99.90
11242;DHT22;5678;52.370;9.006;2022-09-09T12:19:14;24.70;99.90
11242;DHT22;5678;52.370;9.006;2022-09-09T12:21:54;24.80;99.90
11242;DHT22;5678;52.370;9.006;2022-09-09T12:24:32;25.10;99.90
11242;DHT22;5678;52.370;9.006;2022-09-09T12:27:09;25.40;99.90
11242;DHT22;5678;52.370;9.006;2022-09-09T12:29:46;25.60;99.90
11242;DHT22;5678;52.370;9.006;2022-09-09T12:32:19;25.60;99.90
11242;DHT22;5678;52.370;9.006;2022-09-09T12:34:52;25.60;99.90
11242;DHT22;5678;52.370;9.006;2022-09-09T12:37:27;25.50;99.90
11242;DHT22;5678;52.370;9.006;2022-09-09T12:39:56;25.70;99.90
11242;DHT22;5678;52.370;9.006;2022-09-09T12:42:26;25.80;99.90
11242;DHT22;5678;52.370;9.006;2022-09-09T12:44:56;25.80;99.90
11242;DHT22;5678;52.370;9.006;2022-09-09T12:47:35;25.70;99.90
11242;DHT22;5678;52.370;9.006;2022-09-09T12:50:15;25.70;99.90
11242;DHT22;5678;52.370;9.006;2022-09-09T12:52:44;25.60;99.90
11242;DHT22;5678;52.370;9.006;2022-09-09T12:55:18;25.50;99.90
11242;DHT22;5678;52.370;9.006;2022-09-09T12:57:47;25.50;99.90
11242;DHT22;5678;52.370;9.006;2022-09-09T13:00:18;25.40;99.90
11242;DHT22;5678;52.370;9.006;2022-09-09T13:02:50;25.40;99.90
11242;DHT22;5678;52.370;9.006;2022-09-09T13:05:22;25.40;99.90
11242;DHT22;5678;52.370;9.006;2022-09-09T13:07:51;25.30;99.90
11242;DHT22;5678;52.370;9.006;2022-09-09T13:10:26;25.20;99.90
11242;DHT22;5678;52.370;9.006;2022-09-09T13:13:13;25.10;99.90
11242;DHT22;5678;52.370;9.006;2022-09-09T13:15:49;24.90;99.90
11242;DHT22;5678;52.370;9.006;2022-09-09T13:18:21;24.80;99.90
11242;DHT22;5678;52.370;9.006;2022-09-09T13:20:51;24.80;99.90
11242;DHT22;5678;52.370;9.006;2022-09-09T13:23:20;24.80;99.90
11242;DHT22;5678;52.370;9.006;2022-09-09T13:25:56;24.70;99.90
11242;DHT22;5678;52.370;9.006;2022-09-09T13:28:26;24.70;99.90
11242;DHT22;5678;52.370;9.006;2022-09-09T13:31:01;24.70;99.90
11242;DHT22;5678;52.370;9.006;2022-09-09T13:33:32;24.60;99.90
11242;DHT22;5678;52.370;9.006;2022-09-09T13:36:07;24.60;99.90
11242;DHT22;5678;52.370;9.006;2022-09-09T13:38:37;24.80;99.90
11242;DHT22;5678;52.370;9.006;2022-09-09T13:41:07;24.90;99.90
11242;DHT22;5678;52.370;9.006;2022-09-09T13:43:37;25.00;99.90
11242;DHT22;5678;52.370;9.006;2022-09-09T13:46:24;24.90;99.90
11242;DHT22;5678;52.370;9.006;2022-09-09T13:48:56;24.70;99.90
11242;DHT22;5678;52.370;9.006;2022-09-09T13:51:37;24.70;99.90
11242;DHT22;5678;52.370;9.006;2022-09-09T13:54:05;24.50;99.90
11242;DHT22;5678;52.370;9.006;2022-09-09T13:56:34;24.30;99.90
11242;DHT22;5678;52.370;9.006;2022-09-09T13:59:03;24.00;99.90
11242;DHT22;5678;52.370;9.006;2022-09-09T14:01:31;23.80;99.90
11242;DHT22;5678;52.370;9.006;2022-09-09T14:04:01;23.60;99.90
11242;DHT22;5678;52.370;9.006;2022-09-09T14:06:29;23.30;99.90
11242;DHT22;5678;52.370;9.006;2022-09-09T14:09:00;23.10;99.90
11242;DHT22;5678;52.370;9.006;2022-09-09T14:11:28;23.50;99.90
11242;DHT22;5678;52.370;9.006;2022-09-09T14:13:56;22.90;99.90
11242;DHT22;5678;52.370;9.006;2022-09-09T14:16:23;22.80;99.90
11242;DHT22;5678;52.370;9.006;2022-09-09T14:18:54;22.80;99.90
11242;DHT22;5678;52.370;9.006;2022-09-09T14:21:24;22.70;99.90
11242;DHT22;5678;52.370;9.006;2022-09-09T14:23:52;22.70;99.90
11242;DHT22;5678;52.370;9.006;2022-09-09T14:26:21;22.70;99.90
11242;DHT22;5678;52.370;9.006;2022-09-09T14:28:50;22.70;99.90
11242;DHT22;5678;52.370;9.006;2022-09-09T14:31:21;22.70;99.90
11242;DHT22;5678;52.370;9.006;2022-09-09T14:33:49;22.80;99.90
11242;DHT22;5678;52.370;9.006;2022-09-09T14:36:18;22.80;99.90
11242;DHT22;5678;52.370;9.006;2022-09-09T14:38:46;22.60;99.90
11242;DHT22;5678;52.370;9.006;2022-09-09T14:41:16;22.40;99.90
11242;DHT22;5678;52.370;9.006;2022-09-09T14:43:46;22.20;99.90
11242;DHT22;5678;52.370;9.006;2022-09-09T14:46:15;22.10;99.90
11242;DHT22;5678;52.370;9.006;2022-09-09T14:48:44;22.10;99.90
11242;DHT22;5678;52.370;9.006;2022-09-09T14:51:17;22.20;99.90
11242;DHT22;5678;52.370;9.006;2022-09-09T14:53:46;22.30;99.90
11242;DHT22;5678;52.370;9.006;2022-09-09T14:56:16;22.50;99.90
11242;DHT22;5678;52.370;9.006;2022-09-09T14:58:46;22.70;99.90
11242;DHT22;5678;52.370;9.006;2022-09-09T15:01:15;22.90;99.90
11242;DHT22;5678;52.370;9.006;2022-09-09T15:03:49;23.00;99.90
11242;DHT22;5678;52.370;9.006;2022-09-09T15:06:17;23.10;99.90
11242;DHT22;5678;52.370;9.006;2022-09-09T15:08:45;23.20;99.90
11242;DHT22;5678;52.370;9.006;2022-09-09T15:11:15;23.40;99.90
11242;DHT22;5678;52.370;9.006;2022-09-09T15:13:43;23.50;99.90
11242;DHT22;5678;52.370;9.006;2022-09-09T15:16:14;23.60;99.90
11242;DHT22;5678;52.370;9.006;2022-09-09T15:18:43;23.60;99.90
11242;DHT22;5678;52.370;9.006;2022-09-09T15:21:13;23.60;99.90
11242;DHT22;5678;52.370;9.006;2022-09-09T15:23:41;23.60;99.90
11242;DHT22;5678;52.370;9.006;2022-09-09T15:26:10;23.60;99.90
11242;DHT22;5678;52.370;9.006;2022-09-09T15:28:38;23.50;99.90
11242;DHT22;5678;52.370;9.006;2022-09-09T15:31:09;23.50;99.90
11242;DHT22;5678;52.370;9.006;2022-09-09T15:33:40;23.50;99.90
11242;DHT22;5678;52.370;9.006;2022-09-09T15:36:15;23.40;99.90
11242;DHT22;5678;52.370;9.006;2022-09-09T15:38:43;23.30;99.90
11242;DHT22;5678;52.370;9.006;2022-09-09T15:41:12;23.20;99.90
11242;DHT22;5678;52.370;9.006;2022-09-09T15:43:43;23.00;99.90
11242;DHT22;5678;52.370;9.006;2022-09-09T15:46:27;22.90;99.90
11242;DHT22;5678;52.370;9.006;2022-09-09T15:49:02;22.80;99.90
11242;DHT22;5678;52.370;9.006;2022-09-09T15:51:30;22.70;99.90
11242;DHT22;5678;52.370;9.006;2022-09-09T15:54:16;22.50;99.90
11242;DHT22;5678;52.370;9.006;2022-09-09T15:56:45;22.30;99.90
11242;DHT22;5678;52.370;9.006;2022-09-09T15:59:15;22.20;99.90
11242;DHT22;5678;52.370;9.006;2022-09-09T16:01:43;22.00;99.90
11242;DHT22;5678;52.370;9.006;2022-09-09T16:04:13;21.90;99.90
11242;DHT22;5678;52.370;9.006;2022-09-09T16:06:42;21.80;99.90
11242;DHT22;5678;52.370;9.006;2022-09-09T16:09:11;21.70;99.90
11242;DHT22;5678;52.370;9.006;2022-09-09T16:11:38;21.50;99.90
11242;DHT22;5678;52.370;9.006;2022-09-09T16:14:07;21.40;99.90
11242;DHT22;5678;52.370;9.006;2022-09-09T16:16:35;21.20;99.90
11242;DHT22;5678;52.370;9.006;2022-09-09T16:19:05;21.10;99.90
11242;DHT22;5678;52.370;9.006;2022-09-09T16:21:36;21.00;99.90
11242;DHT22;5678;52.370;9.006;2022-09-09T16:24:07;20.90;99.90
11242;DHT22;5678;52.370;9.006;2022-09-09T16:26:38;21.00;99.90